Latest Coastal Weather Observations for Cape Otway

IDT60701

Issued at 6:45 pm EDT Wednesday 26 November 2014 (issued every 10 minutes, with the page automatically refreshed every 10 minutes)

About coastal observations | Map of coastal stations | Coastal observations for TAS | Marine services | Other Formats
Station Details ID: 090015 Name: CAPE OTWAY LIGHTHOUSE Lat: -38.86 Lon: 143.51 Height: 82.0 m
Data from the previous 72 hours. | See also: Recent months at Cape Otway
Date/Time
EDT
Temp

°C
Wind Pressure Rain
since 9am
mm
Weather Cloud Vis
km
Sea
Height
m
Swell
Dir
 
Speed
knots
Gust
knots
hPa Trend Height
m
Period
s
Dir
26/06:30pm 13.7 SSW 9 15 1023.5 - 0.2 - - - - - - -
26/06:00pm 13.8 SSW 11 14 1023.2 - 0.2 - - - - - - -
26/05:30pm 14.4 SW 10 13 1023.2 - 0.2 - - - - - - -
26/05:00pm 15.6 SW 11 15 1023.1 - 0.2 - - - - - - -
26/04:30pm 15.2 SW 11 16 1023.1 - 0.2 - - - - - - -
26/04:00pm 15.5 SW 12 16 1023.0 - 0.2 - - - - - - -
26/03:30pm 15.6 SW 13 16 1022.9 - 0.2 - - - - - - -
26/03:00pm 15.5 SW 12 18 1022.8 R 0.2 Fine Mostly cloudy 20 2 1.0 - SW
26/02:30pm 15.5 SSW 10 13 1022.8 - 0.2 - - - - - - -
26/02:00pm 15.1 SSW 10 14 1022.7 - 0.2 - - - - - - -
26/01:30pm 14.5 SSW 12 15 1022.6 - 0.2 - - - - - - -
26/01:00pm 14.6 SSW 11 15 1022.6 - 0.2 - - - - - - -
26/12:30pm 14.5 SSW 10 14 1022.4 - 0.2 - - - - - - -
26/12:00pm 13.7 SSW 13 18 1022.2 - 0.2 - - - - - - -
26/11:30am 13.5 SSW 13 17 1022.0 - 0.2 - - - - - - -
26/11:00am 13.8 SW 17 22 1021.8 - 0.2 - - - - - - -
26/10:30am 14.1 W 15 20 1021.5 - 0.2 - - - - - - -
26/10:00am 13.8 W 15 22 1021.3 - 0.2 - - - - - - -
26/09:30am 13.7 W 16 20 1021.2 - 0.2 - - - - - - -
26/09:00am 14.8 W 17 22 1021.0 R 0.0 Distant precip. Mostly cloudy 20 2 1.0 - S
26/08:30am 14.5 W 16 22 1020.7 - 0.0 - - - - - - -
26/08:00am 14.1 W 16 21 1020.6 - 0.0 - - - - - - -
26/07:30am 13.8 W 17 23 1020.3 - 0.0 - - - - - - -
26/07:00am 13.9 W 16 22 1020.1 - 0.0 - - - - - - -
26/06:30am 13.6 W 15 21 1019.9 - 0.0 - - - - - - -
26/06:00am 13.5 W 14 21 1019.5 - 0.0 - - - - - - -
26/05:30am 12.7 W 12 17 1019.4 - 0.0 - - - - - - -
26/05:00am 13.9 W 15 20 1019.2 - 0.0 - - - - - - -
26/04:30am 13.5 W 16 22 1019.1 - 0.0 - - - - - - -
26/04:00am 13.6 W 17 23 1019.2 - 0.0 - - - - - - -
26/03:30am 13.6 W 17 22 1019.1 - 0.0 - - - - - - -
26/03:00am 13.4 W 15 22 1019.3 - 0.0 - - - - - - -
26/02:48am 13.4 W 15 25 1019.3 - 0.0 - - - - - - -
26/02:47am 13.4 W 15 25 1019.3 - 0.0 - - - - - - -
26/02:30am 13.3 W 16 25 1019.5 - 0.0 - - - - - - -
26/02:00am 13.2 W 17 22 1019.6 - 0.0 - - - - - - -
26/01:30am 13.0 W 17 22 1019.9 - 0.0 - - - - - - -
26/01:00am 12.9 W 18 25 1020.1 - 0.0 - - - - - - -
26/12:30am 13.2 W 17 23 1020.2 - 0.0 - - - - - - -
26/12:00am 13.5 W 17 23 1020.5 - 0.0 - - - - - - -
 
Date/Time
EDT
Temp

°C
Wind Pressure Rain
since 9am
mm
Weather Cloud Vis
km
Sea
Height
m
Swell
Dir
 
Speed
knots
Gust
knots
hPa Trend Height
m
Period
s
Dir
25/11:30pm 13.4 W 14 19 1020.6 - 0.0 - - - - - - -
25/11:00pm 13.2 W 16 22 1020.8 - 0.0 - - - - - - -
25/10:30pm 13.5 W 16 21 1020.9 - 0.0 - - - - - - -
25/10:00pm 13.4 WSW 15 22 1020.9 - 0.0 - - - - - - -
25/09:30pm 13.4 W 16 23 1020.8 - 0.0 - - - - - - -
25/09:00pm 13.9 W 18 27 1020.6 - 0.0 - - - - - - -
25/08:30pm 13.4 W 19 26 1020.5 - 0.0 - - - - - - -
25/08:15pm 13.7 W 18 28 1020.5 - 0.0 - - - - - - -
25/08:13pm 13.7 W 18 28 1020.5 - 0.0 - - - - - - -
25/08:00pm 13.9 W 19 26 1020.4 - 0.0 - - - - - - -
25/07:30pm 14.3 W 20 27 1020.2 - 0.0 - - - - - - -
25/07:00pm 14.5 W 19 26 1019.8 - 0.0 - - - - - - -
25/06:38pm 14.6 W 20 31 1019.5 - 0.0 - - - - - - -
25/06:36pm 14.6 W 20 31 1019.5 - 0.0 - - - - - - -
25/06:30pm 14.6 W 19 27 1019.5 - 0.0 - - - - - - -
25/06:17pm 14.4 WSW 19 29 1019.3 - 0.0 - - - - - - -
25/06:16pm 14.5 WSW 19 29 1019.4 - 0.0 - - - - - - -
25/06:00pm 14.2 W 21 28 1019.3 - 0.0 - - - - - - -
25/05:30pm 14.4 W 21 27 1019.3 - 0.0 - - - - - - -
25/05:00pm 14.7 W 22 28 1019.4 - 0.0 - - - - - - -
25/04:30pm 14.7 W 21 27 1019.3 - 0.0 - - - - - - -
25/04:00pm 14.6 W 21 29 1019.1 - 0.0 - - - - - - -
25/03:30pm 14.6 W 20 29 1019.1 - 0.0 - - - - - - -
25/03:29pm 14.7 W 19 29 1019.0 - 0.0 - - - - - - -
25/03:27pm 14.7 W 19 29 1019.0 - 0.0 - - - - - - -
25/03:00pm 13.4 W 25 33 1019.0 R 0.0 - - - - - - -
25/02:46pm 14.4 W 19 29 1018.9 - 0.0 - - - - - - -
25/02:44pm 14.4 W 19 29 1018.9 - 0.0 - - - - - - -
25/02:30pm 15.2 W 19 25 1019.0 - 0.0 - - - - - - -
25/02:00pm 15.3 W 19 25 1019.1 - 0.0 - - - - - - -
25/01:30pm 14.5 W 22 33 1019.0 - 0.0 - - - - - - -
25/01:24pm 14.8 W 23 33 1018.9 - 0.0 - - - - - - -
25/01:22pm 14.8 W 23 33 1018.9 - 0.0 - - - - - - -
25/01:00pm 15.1 W 19 28 1018.8 - 0.0 - - - - - - -
25/12:30pm 14.4 W 20 27 1018.8 - 0.0 - - - - - - -
25/12:19pm 12.9 W 20 30 1018.8 - 0.0 - - - - - - -
25/12:15pm 13.0 WSW 20 27 1018.8 - 0.0 - - - - - - -
25/12:10pm 13.7 W 18 31 1018.7 - 0.0 - - - - - - -
25/12:08pm 13.7 W 18 31 1018.7 - 0.0 - - - - - - -
25/12:00pm 14.6 W 19 27 1018.7 - 0.0 - - - - - - -
25/11:30am 15.5 W 18 25 1018.6 - 0.0 - - - - - - -
25/11:00am 14.9 W 20 27 1018.3 - 0.0 - - - - - - -
25/10:30am 14.6 W 19 24 1018.0 - 0.0 - - - - - - -
25/10:00am 13.5 W 16 21 1017.9 - 0.0 - - - - - - -
25/09:30am 14.5 W 17 23 1017.4 - 0.0 - - - - - - -
25/09:00am 13.8 W 18 25 1017.0 R 6.2 Distant precip. Partly cloudy 20 3 4.0 - SW
25/08:30am 14.0 WSW 19 27 1016.5 - 6.2 - - - - - - -
25/08:23am 13.2 WSW 17 27 1016.4 - 6.2 - - - - - - -
25/08:21am 13.2 WSW 17 27 1016.4 - 6.2 - - - - - - -
25/08:00am 13.7 WSW 19 27 1016.1 - 6.2 - - - - - - -
25/07:30am 13.4 WSW 19 28 1015.8 - 6.2 - - - - - - -
25/07:00am 12.9 W 19 27 1015.3 - 6.2 - - - - - - -
25/06:30am 12.9 WSW 19 29 1015.0 - 6.2 - - - - - - -
25/06:00am 12.6 WSW 16 29 1014.4 - 6.2 - - - - - - -
25/05:58am 12.7 WSW 15 27 1014.4 - 6.2 - - - - - - -
25/05:56am 12.7 WSW 15 27 1014.4 - 6.2 - - - - - - -
25/05:30am 12.4 WSW 20 28 1014.3 - 6.2 - - - - - - -
25/05:00am 11.2 WSW 20 30 1013.9 - 6.0 - - - - - - -
25/04:58am 11.6 WSW 22 32 1013.9 - 6.0 - - - - - - -
25/04:49am 12.5 SW 22 32 1013.7 - 4.6 - - - - - - -
25/04:45am 12.8 SW 25 29 1013.7 - 4.4 - - - - - - -
25/04:30am 13.1 W 22 29 1013.5 - 4.4 - - - - - - -
25/04:02am 12.7 W 21 31 1013.4 - 4.4 - - - - - - -
25/04:00am 12.7 W 21 31 1013.4 - 4.4 - - - - - - -
25/03:50am 12.1 W 17 27 1013.3 - 4.4 - - - - - - -
25/03:30am 11.6 W 19 26 1013.4 - 4.4 - - - - - - -
25/03:16am 12.2 WSW 17 29 1013.4 - 3.8 - - - - - - -
25/03:04am 11.1 W 19 23 1013.4 - 3.8 - - - - - - -
25/03:00am 11.8 WSW 24 34 1013.4 - 3.8 - - - - - - -
25/02:59am 12.1 WSW 25 34 1013.3 - 3.2 - - - - - - -
25/02:41am 12.6 W 20 30 1013.2 - 3.0 - - - - - - -
25/02:39am 12.6 W 20 30 1013.2 - 3.0 - - - - - - -
25/02:30am 12.1 W 21 30 1013.2 - 3.0 - - - - - - -
25/02:06am 12.7 W 17 27 1012.9 - 3.0 - - - - - - -
25/02:04am 12.7 W 17 27 1012.9 - 3.0 - - - - - - -
25/02:00am 12.6 W 16 25 1013.0 - 3.0 - - - - - - -
25/01:30am 13.5 W 20 27 1012.9 - 2.0 - - - - - - -
25/01:14am 13.1 W 16 27 1012.9 - 2.0 - - - - - - -
25/01:12am 13.1 W 16 27 1012.9 - 2.0 - - - - - - -
25/01:00am 13.0 W 19 25 1013.0 - 2.0 - - - - - - -
25/12:30am 12.2 W 20 26 1013.0 - 2.0 - - - - - - -
25/12:03am 13.8 W 21 32 1012.5 - 1.6 - - - - - - -
25/12:01am 13.8 W 21 32 1012.5 - 1.6 - - - - - - -
25/12:00am 13.8 W 20 28 1012.6 - 1.6 - - - - - - -
 
Date/Time
EDT
Temp

°C
Wind Pressure Rain
since 9am
mm
Weather Cloud Vis
km
Sea
Height
m
Swell
Dir
 
Speed
knots
Gust
knots
hPa Trend Height
m
Period
s
Dir
24/11:30pm 13.7 W 21 31 1012.6 - 1.6 - - - - - - -
24/11:09pm 13.4 WSW 17 29 1012.6 - 1.6 - - - - - - -
24/11:07pm 13.4 WSW 18 29 1012.6 - 1.6 - - - - - - -
24/11:00pm 13.3 WSW 18 24 1012.8 - 1.6 - - - - - - -
24/10:54pm 13.3 WSW 19 26 1012.8 - 1.6 - - - - - - -
24/10:51pm 13.6 WSW 17 24 1012.8 - 1.6 - - - - - - -
24/10:30pm 13.8 W 20 26 1012.7 - 1.6 - - - - - - -
24/10:00pm 13.8 W 19 27 1012.5 - 1.6 - - - - - - -
24/09:30pm 13.6 W 22 30 1012.1 - 1.6 - - - - - - -
24/09:00pm 13.5 W 21 28 1011.7 - 1.6 - - - - - - -
24/08:30pm 14.1 W 19 25 1011.4 - 1.6 - - - - - - -
24/08:00pm 14.4 W 19 27 1011.0 - 1.6 - - - - - - -
24/07:30pm 14.7 W 20 30 1010.5 - 1.6 - - - - - - -
24/07:15pm 14.5 W 20 30 1010.1 - 1.6 - - - - - - -
24/07:00pm 14.6 W 19 28 1009.6 - 1.6 - - - - - - -
24/06:34pm 14.6 WSW 18 28 1008.9 - 1.6 - - - - - - -
24/06:32pm 14.6 WSW 18 28 1008.9 - 1.6 - - - - - - -
24/06:30pm 14.8 WSW 19 28 1008.8 - 1.6 - - - - - - -
24/06:00pm 14.2 W 16 23 1008.7 - 1.6 - - - - - - -
24/05:30pm 13.8 W 15 21 1008.8 - 1.6 - - - - - - -
24/05:00pm 13.4 W 17 22 1008.7 - 1.6 - - - - - - -
24/04:30pm 12.6 W 18 25 1008.5 - 1.6 - - - - - - -
24/04:11pm 13.3 WSW 19 31 1008.2 - 1.6 - - - - - - -
24/04:09pm 13.3 WSW 19 31 1008.2 - 1.6 - - - - - - -
24/04:00pm 13.4 WSW 21 29 1008.2 - 1.6 - - - - - - -
24/03:30pm 14.6 W 19 31 1007.7 - 1.4 - - - - - - -
24/03:28pm 15.3 W 16 27 1007.6 - 1.4 - - - - - - -
24/03:26pm 15.3 W 16 27 1007.6 - 1.4 - - - - - - -
24/03:00pm 16.4 W 16 20 1007.8 R 1.4 Distant precip. Mostly cloudy 20 2 1.0 - SW
24/02:30pm 16.2 W 11 16 1007.9 - 1.4 - - - - - - -
24/02:00pm 16.1 W 9 15 1008.0 - 1.4 - - - - - - -
24/01:30pm 16.0 W 9 14 1007.9 - 1.4 - - - - - - -
24/01:00pm 16.0 WNW 13 18 1007.8 - 1.4 - - - - - - -
24/12:30pm 14.9 WNW 13 19 1007.8 - 1.4 - - - - - - -
24/12:00pm 14.9 W 9 11 1008.0 - 1.4 - - - - - - -
24/11:30am 14.7 WNW 5 7 1008.2 - 1.4 - - - - - - -
24/11:00am 15.0 NW 5 7 1008.1 - 0.2 - - - - - - -
24/10:30am 15.2 WNW 5 7 1008.1 - 0.2 - - - - - - -
24/10:00am 14.9 N 3 5 1008.5 - 0.2 - - - - - - -
24/09:30am 14.6 W 7 10 1008.9 - 0.0 - - - - - - -
24/09:00am 14.5 NW 4 7 1008.9 F 2.2 Thunder Cloudy 20 1 1.0 - SW
24/08:30am 13.8 ENE 6 9 1008.4 - 2.2 - - - - - - -
24/08:00am 13.7 ENE 7 10 1008.7 - 2.2 - - - - - - -
24/07:30am 13.5 NE 7 11 1009.1 - 2.2 - - - - - - -
24/07:00am 14.3 N 5 11 1008.7 - 2.0 - - - - - - -
24/06:44am 14.4 NW 8 14 1009.8 - 0.2 - - - - - - -
24/06:42am 14.4 NE 8 14 1009.8 - 0.2 - - - - - - -
24/06:30am 14.3 ENE 11 16 1007.2 - 0.2 - - - - - - -
24/06:00am 14.6 ENE 13 17 1007.8 - 0.2 - - - - - - -
24/05:30am 14.7 E 7 10 1008.3 - 0.2 - - - - - - -
24/05:00am 14.3 E 11 15 1008.0 - 0.2 - - - - - - -
24/04:30am 14.6 E 10 14 1008.3 - 0.2 - - - - - - -
24/04:00am 14.6 E 7 11 1009.1 - 0.0 - - - - - - -
24/03:30am 14.4 ENE 10 13 1009.5 - 0.0 - - - - - - -
24/03:00am 14.1 E 8 11 1009.8 - 0.0 - - - - - - -
24/02:30am 14.5 ENE 7 9 1010.7 - 0.0 - - - - - - -
24/02:00am 15.0 NE 10 12 1011.2 - 0.0 - - - - - - -
24/01:30am 14.5 ENE 8 10 1011.6 - 0.0 - - - - - - -
24/01:00am 14.9 NE 9 12 1011.9 - 0.0 - - - - - - -
24/12:30am 14.8 NE 9 13 1012.2 - 0.0 - - - - - - -
24/12:00am 14.7 NNE 8 10 1012.9 - 0.0 - - - - - - -
 
Date/Time
EDT
Temp

°C
Wind Pressure Rain
since 9am
mm
Weather Cloud Vis
km
Sea
Height
m
Swell
Dir
 
Speed
knots
Gust
knots
hPa Trend Height
m
Period
s
Dir
23/11:30pm 14.9 NNE 9 12 1013.2 - 0.0 - - - - - - -
23/11:00pm 14.3 NE 9 11 1013.1 - 0.0 - - - - - - -
23/10:30pm 14.2 NNE 9 11 1013.3 - 0.0 - - - - - - -
23/10:00pm 14.1 NNE 9 11 1013.4 - 0.0 - - - - - - -
23/09:30pm 14.0 NNE 9 12 1013.1 - 0.0 - - - - - - -
23/09:00pm 14.4 NE 9 11 1013.0 - 0.0 - - - - - - -
23/08:30pm 14.7 ENE 8 12 1013.3 - 0.0 - - - - - - -
23/08:00pm 15.0 ENE 7 13 1012.6 - 0.0 - - - - - - -
23/07:30pm 15.5 E 4 6 1012.8 - 0.0 - - - - - - -
23/07:00pm 15.7 SE 2 4 1013.0 - 0.0 - - - - - - -

Other Formats:

Comma delimited format used in spreadsheet applications
http://www.bom.gov.au/fwo/IDT60701/IDT60701.94842.axf

JavaScript Object Notation format (JSON) in row-major order
http://www.bom.gov.au/fwo/IDT60701/IDT60701.94842.json